Latest Weather Observations for Ballina

IDN60801

Issued at 10:35 pm EST Wednesday 23 April 2014 (issued every 30 minutes, with the page automatically refreshed every 10 minutes)

About weather observations | Map of weather stations | Latest weather observations for NSW | Other Formats
Station Details ID: 058198 Name: BALLINA AIRPORT AWS Lat: -28.84 Lon: 153.56 Height: 1.3 m
Data from the previous 72 hours. | See also: Recent months at Ballina
Date/Time
EST
Temp
°C
App
Temp
°C
Dew
Point
Rel
Hum
%
Delta-T
°C
Wind Press
QNH
hPa
Press
MSL
hPa
Rain
since 9 am
mm
Dir
 
Spd
km/h
Gust
km/h
Spd
kts
Gust
kts
23/10:30pm 19.6 20.2 16.8 84 1.7 N 9 11 5 6 1017.4 - 0.0
23/10:00pm 19.6 19.7 16.4 82 1.9 NNE 11 15 6 8 1017.4 - 0.0
23/09:30pm 19.6 20.0 16.4 82 1.9 N 9 11 5 6 1017.4 - 0.0
23/09:00pm 19.7 20.2 16.5 82 1.9 N 9 13 5 7 1017.5 1017.5 0.0
23/08:30pm 19.9 20.5 16.9 83 1.8 N 9 11 5 6 1017.5 - 0.0
23/08:00pm 19.8 20.4 16.8 83 1.8 N 9 13 5 7 1017.5 - 0.0
23/07:30pm 19.4 20.2 16.4 83 1.8 N 7 9 4 5 1017.3 - 0.0
23/07:00pm 20.0 21.1 16.6 81 2.1 N 6 7 3 4 1017.2 - 0.0
23/06:30pm 21.1 21.9 16.3 74 2.9 N 7 9 4 5 1016.8 - 0.0
23/06:00pm 21.2 20.9 15.5 70 3.4 N 11 13 6 7 1016.5 1016.5 0.0
23/05:30pm 21.6 21.1 15.0 66 3.9 NNE 11 13 6 7 1016.1 - 0.0
23/05:00pm 23.2 22.7 15.0 60 4.9 NNE 11 15 6 8 1016.0 - 0.0
23/04:30pm 24.3 22.9 15.5 58 5.3 NE 17 24 9 13 1015.9 - 0.0
23/04:00pm 25.2 23.3 14.3 50 6.5 NE 17 24 9 13 1015.9 - 0.0
23/03:30pm 25.6 23.2 13.8 48 7.0 NE 19 24 10 13 1015.9 - 0.0
23/03:00pm 25.8 23.3 13.6 47 7.2 NE 19 22 10 12 1015.9 1015.9 0.0
23/02:30pm 26.0 23.6 13.8 47 7.2 NE 19 26 10 14 1016.0 - 0.0
23/02:00pm 26.2 24.0 15.0 50 6.7 NNE 20 26 11 14 1016.1 - 0.0
23/01:30pm 25.9 24.4 16.2 55 5.9 ENE 19 24 10 13 1016.2 - 0.0
23/01:00pm 25.7 24.4 14.8 51 6.5 E 15 22 8 12 1016.5 - 0.0
23/12:30pm 25.7 24.6 15.4 53 6.2 ESE 15 20 8 11 1017.0 - 0.0
23/12:00pm 25.1 24.5 15.7 56 5.7 SE 13 19 7 10 1017.4 1017.4 0.0
23/11:30am 25.1 25.1 16.3 58 5.4 SSE 11 17 6 9 1017.8 - 0.0
23/11:00am 25.4 25.4 17.1 60 5.2 SE 13 19 7 10 1018.5 - 0.0
23/10:30am 25.8 26.7 14.0 48 7.0 W 2 9 1 5 1018.9 - 0.0
23/10:00am 24.6 24.5 15.0 55 5.7 WNW 9 13 5 7 1019.2 - 0.0
23/09:30am 23.5 24.1 15.3 60 4.9 NNW 6 9 3 5 1019.3 - 0.0
23/09:00am 22.6 23.2 15.9 66 4.0 N 7 9 4 5 1019.5 1019.5 0.0
23/08:30am 20.9 22.8 15.7 72 3.1 CALM 0 0 0 0 1019.6 - 0.0
23/08:00am 18.4 20.5 16.2 87 1.3 CALM 0 0 0 0 1019.6 - 0.0
23/07:30am 16.2 16.9 15.7 97 0.3 SSW 6 7 3 4 1019.6 - 0.0
23/07:00am 14.0 13.9 13.4 96 0.3 NNW 6 7 3 4 1019.3 - 0.0
23/06:51am 14.1 14.5 13.6 97 0.3 W 4 6 2 3 1019.3 - 0.0
23/06:32am 12.9 13.6 12.3 96 0.3 CALM 0 0 0 0 1019.2 - 0.0
23/06:30am 13.2 14.0 12.6 96 0.3 CALM 0 0 0 0 1019.1 - 0.0
23/06:00am 13.1 13.9 12.5 96 0.3 W 0 0 0 0 1018.9 1018.9 0.0
23/05:30am 13.9 14.9 13.3 96 0.3 CALM 0 0 0 0 1018.7 - 0.0
23/05:00am 13.1 13.4 12.3 95 0.4 NW 2 6 1 3 1018.5 - 0.0
23/04:30am 13.8 14.7 13.0 95 0.4 CALM 0 0 0 0 1018.3 - 0.0
23/04:00am 14.5 15.7 13.9 96 0.3 CALM 0 0 0 0 1018.0 - 0.0
23/03:30am 14.5 15.7 13.7 95 0.4 CALM 0 0 0 0 1018.0 - 0.0
23/03:29am 14.6 15.8 13.8 95 0.4 CALM 0 0 0 0 1018.0 - 0.0
23/03:07am 14.5 15.6 13.5 94 0.6 CALM 0 0 0 0 1017.9 - 0.0
23/03:00am 14.7 15.9 13.7 94 0.6 CALM 0 0 0 0 1017.9 1017.9 0.0
23/02:30am 15.4 16.9 14.6 95 0.5 CALM 0 0 0 0 1018.2 - 0.0
23/02:00am 15.0 15.9 14.0 94 0.6 W 2 7 1 4 1018.3 - 0.0
23/01:30am 15.2 16.5 14.1 93 0.6 CALM 0 0 0 0 1018.7 - 0.0
23/01:00am 15.7 17.0 14.2 91 0.9 CALM 0 0 0 0 1018.7 - 0.0
23/12:30am 16.5 18.0 14.7 89 1.0 CALM 0 0 0 0 1018.6 - 0.0
23/12:00am 16.9 18.1 13.8 82 1.8 NW 0 0 0 0 1018.7 1018.7 0.0
 
Date/Time
EST
Temp
°C
App
Temp
°C
Dew
Point
Rel
Hum
%
Delta-T
°C
Wind Press
QNH
hPa
Press
MSL
hPa
Rain
since 9 am
mm
Dir
 
Spd
km/h
Gust
km/h
Spd
kts
Gust
kts
22/11:30pm 18.9 19.3 15.2 79 2.2 N 7 11 4 6 1018.9 - 0.0
22/11:00pm 19.0 19.0 15.1 78 2.3 N 9 11 5 6 1019.1 - 0.0
22/10:30pm 19.2 18.8 15.1 77 2.4 N 11 13 6 7 1019.1 - 0.0
22/10:00pm 19.5 19.7 15.8 79 2.2 N 9 13 5 7 1019.2 - 0.0
22/09:30pm 19.5 19.7 15.8 79 2.2 N 9 13 5 7 1019.3 - 0.0
22/09:00pm 19.9 19.9 16.3 80 2.2 N 11 15 6 8 1019.2 1019.2 0.0
22/08:30pm 20.1 20.1 16.3 79 2.3 N 11 15 6 8 1019.4 - 0.0
22/08:00pm 20.2 20.6 16.2 78 2.4 N 9 13 5 7 1019.4 - 0.0
22/07:30pm 20.6 20.9 16.0 75 2.8 N 9 11 5 6 1019.2 - 0.0
22/07:00pm 21.1 21.0 15.9 72 3.1 N 11 19 6 10 1019.1 - 0.0
22/06:30pm 21.5 20.7 16.0 71 3.3 NNE 15 20 8 11 1018.9 - 0.0
22/06:00pm 21.8 21.0 16.1 70 3.4 NNE 15 22 8 12 1018.7 1018.7 0.0
22/05:30pm 22.2 21.4 16.2 69 3.6 NNE 15 20 8 11 1018.5 - 0.0
22/05:00pm 23.0 22.2 16.1 65 4.2 NNE 15 20 8 11 1018.3 - 0.0
22/04:30pm 23.7 22.4 15.7 61 4.8 NNE 17 22 9 12 1018.3 - 0.0
22/04:00pm 24.8 22.6 14.9 54 5.9 NNE 20 30 11 16 1018.2 - 0.0
22/03:30pm 25.0 22.8 15.0 53 6.0 NNE 20 32 11 17 1018.2 - 0.0
22/03:00pm 25.5 23.6 15.8 55 5.9 NNE 20 30 11 16 1018.5 1018.5 0.0
22/02:30pm 25.7 24.4 16.8 58 5.5 NNE 19 32 10 17 1018.3 - 0.0
22/02:00pm 25.9 23.8 16.2 55 5.9 NE 22 32 12 17 1018.2 - 0.0
22/01:30pm 26.4 23.8 16.0 52 6.4 NE 24 33 13 18 1018.5 - 0.0
22/01:00pm 26.4 22.6 15.8 52 6.5 NE 30 39 16 21 1018.6 - 0.0
22/12:30pm 27.3 25.1 15.0 47 7.4 NNE 20 30 11 16 1019.2 - 0.0
22/12:00pm 27.0 24.5 14.1 45 7.7 NNE 20 28 11 15 1020.1 1020.1 0.0
22/11:30am 27.0 25.1 15.1 48 7.2 N 19 28 10 15 1020.2 - 0.0
22/11:00am 26.5 24.9 14.9 49 7.0 NNE 17 28 9 15 1020.5 - 0.0
22/10:30am 25.8 24.1 14.6 50 6.7 N 17 24 9 13 1020.8 - 0.0
22/10:00am 25.4 23.5 15.1 53 6.2 N 19 28 10 15 1021.2 - 0.0
22/09:30am 24.9 23.4 15.2 54 5.8 N 17 28 9 15 1021.5 - 0.0
22/09:00am 24.2 25.3 17.0 64 4.4 N 7 11 4 6 1021.8 1021.8 0.0
22/08:30am 22.4 23.4 16.4 69 3.6 NNW 6 9 3 5 1021.7 - 0.0
22/08:00am 20.5 22.7 16.5 78 2.4 CALM 0 0 0 0 1021.6 - 0.0
22/07:30am 18.5 21.1 17.5 94 0.6 CALM 0 0 0 0 1021.5 - 0.0
22/07:00am 16.4 18.3 15.8 96 0.4 CALM 0 0 0 0 1021.3 - 0.0
22/06:55am 16.3 18.2 15.7 96 0.4 CALM 0 0 0 0 1021.3 - 0.0
22/06:30am 15.0 16.3 14.2 95 0.5 CALM 0 0 0 0 1021.1 - 0.0
22/06:22am 15.2 16.6 14.4 95 0.5 CALM 0 0 0 0 1021.1 - 0.0
22/06:00am 15.2 16.6 14.4 95 0.5 CALM 0 0 0 0 1020.9 1020.9 0.0
22/05:57am 15.4 16.9 14.6 95 0.5 CALM 0 0 0 0 1020.9 - 0.0
22/05:30am 15.4 16.8 14.4 94 0.6 CALM 0 6 0 3 1020.7 - 0.0
22/05:00am 15.7 16.0 14.6 93 0.6 W 6 9 3 5 1020.4 - 0.0
22/04:30am 15.6 15.8 14.1 91 0.8 W 6 9 3 5 1020.3 - 0.0
22/04:00am 16.4 16.9 14.1 86 1.3 W 4 7 2 4 1019.9 - 0.0
22/03:30am 18.9 19.5 15.2 79 2.2 NNW 6 9 3 5 1019.7 - 0.0
22/03:00am 19.8 19.7 15.9 78 2.3 N 11 13 6 7 1019.5 1019.5 0.0
22/02:30am 19.8 19.7 15.9 78 2.3 N 11 13 6 7 1019.6 - 0.0
22/02:00am 20.2 20.5 16.0 77 2.5 N 9 13 5 7 1019.6 - 0.0
22/01:30am 20.4 20.0 16.2 77 2.5 NNE 13 17 7 9 1019.6 - 0.0
22/01:00am 20.6 20.3 16.4 77 2.5 N 13 17 7 9 1019.8 - 0.0
22/12:30am 20.8 20.2 16.6 77 2.5 N 15 19 8 10 1019.8 - 0.0
22/12:00am 21.2 20.7 16.8 76 2.7 N 15 20 8 11 1019.9 1019.9 0.0
 
Date/Time
EST
Temp
°C
App
Temp
°C
Dew
Point
Rel
Hum
%
Delta-T
°C
Wind Press
QNH
hPa
Press
MSL
hPa
Rain
since 9 am
mm
Dir
 
Spd
km/h
Gust
km/h
Spd
kts
Gust
kts
21/11:30pm 21.2 20.8 17.2 78 2.4 N 15 22 8 12 1019.9 - 0.0
21/11:00pm 20.9 20.5 17.1 79 2.3 N 15 22 8 12 1020.2 - 0.0
21/10:30pm 21.0 21.0 17.2 79 2.3 N 13 17 7 9 1020.3 - 0.0
21/10:00pm 21.2 20.8 17.2 78 2.4 N 15 20 8 11 1020.2 - 0.0
21/09:30pm 21.5 20.8 17.3 77 2.6 N 17 22 9 12 1020.1 - 0.0
21/09:00pm 21.6 20.8 17.2 76 2.7 N 17 24 9 13 1020.0 1020.0 0.0
21/08:30pm 21.7 21.4 17.3 76 2.7 N 15 24 8 13 1019.9 - 0.0
21/08:00pm 21.7 21.5 17.5 77 2.6 N 15 20 8 11 1019.7 - 0.0
21/07:30pm 21.9 21.7 17.7 77 2.6 N 15 22 8 12 1019.5 - 0.0
21/07:00pm 22.2 22.1 17.8 76 2.7 N 15 20 8 11 1019.2 - 0.0
21/06:30pm 22.2 22.2 17.3 74 3.0 NNE 13 19 7 10 1018.9 - 0.0
21/06:00pm 22.6 22.3 17.3 72 3.3 NNE 15 20 8 11 1018.5 1018.5 0.0
21/05:30pm 23.1 22.3 17.1 69 3.7 NNE 17 22 9 12 1018.3 - 0.0
21/05:00pm 24.1 23.2 16.9 64 4.4 NNE 17 26 9 14 1018.1 - 0.0
21/04:30pm 25.0 23.7 16.7 60 5.1 NNE 19 28 10 15 1017.7 - 0.0
21/04:00pm 25.8 25.1 17.4 59 5.2 NNE 17 30 9 16 1017.5 - 0.0
21/03:30pm 26.4 25.1 17.2 57 5.7 NE 20 24 11 13 1017.3 - 0.0
21/03:00pm 25.3 23.8 16.7 59 5.3 NE 20 28 11 15 1017.4 1017.4 0.0
21/02:30pm 26.7 24.6 14.8 48 7.2 NE 19 24 10 13 1017.5 - 0.0
21/02:00pm 27.2 26.1 17.4 55 6.2 NE 19 24 10 13 1017.8 - 0.0
21/01:30pm 26.9 26.1 17.1 55 6.1 NE 17 22 9 12 1018.1 - 0.0
21/01:00pm 26.7 26.2 16.9 55 6.1 ENE 15 20 8 11 1018.5 - 0.0
21/12:30pm 26.3 25.5 16.0 53 6.3 E 15 19 8 10 1018.8 - 0.0
21/12:00pm 26.4 26.3 16.9 56 5.9 ESE 13 19 7 10 1019.3 1019.3 0.0
21/11:30am 26.5 27.3 16.4 53 6.2 E 7 13 4 7 1019.7 - 0.0
21/11:00am 26.6 27.5 16.2 52 6.4 NNW 6 9 3 5 1020.0 - 0.0
21/10:30am 25.5 25.8 13.4 47 7.1 WNW 4 9 2 5 1020.3 - 0.0
21/10:00am 24.9 25.4 15.0 54 5.9 NNW 6 9 3 5 1020.5 - 0.0
21/09:30am 23.8 24.6 14.8 57 5.4 S 4 7 2 4 1020.7 - 0.0
21/09:00am 23.0 23.6 15.3 62 4.6 S 6 7 3 4 1020.9 1020.9 0.0
21/08:30am 21.6 23.4 15.4 68 3.7 CALM 0 2 0 1 1020.7 - 0.0
21/08:00am 18.9 20.4 15.8 82 1.8 W 2 7 1 4 1020.7 - 0.0
21/07:30am 16.8 18.9 16.2 96 0.4 CALM 0 0 0 0 1020.4 - 0.0
21/07:00am 14.9 16.3 14.4 97 0.3 CALM 0 0 0 0 1020.0 - 0.0
21/06:39am 14.1 15.2 13.5 96 0.3 CALM 0 0 0 0 1019.8 - 0.0
21/06:30am 13.8 14.8 13.3 97 0.3 CALM 0 0 0 0 1019.7 - 0.0
21/06:07am 12.8 13.4 12.0 95 0.4 CALM 0 0 0 0 1019.4 - 0.0
21/06:00am 13.1 13.8 12.3 95 0.4 CALM 0 0 0 0 1019.3 1019.3 0.0
21/05:30am 13.6 14.1 12.8 95 0.4 WSW 2 7 1 4 1019.1 - 0.0
21/05:19am 13.9 14.9 13.1 95 0.4 CALM 0 0 0 0 1019.0 - 0.0
21/05:00am 13.3 14.1 12.4 94 0.5 CALM 0 0 0 0 1018.7 - 0.0
21/04:49am 13.7 14.6 12.8 94 0.5 CALM 0 0 0 0 1018.6 - 0.0
21/04:30am 14.8 15.2 13.8 94 0.6 WSW 4 9 2 5 1018.3 - 0.0
21/04:00am 14.7 14.4 13.2 91 0.8 W 7 9 4 5 1018.0 - 0.0
21/03:30am 15.6 16.6 13.1 85 1.4 CALM 0 0 0 0 1017.8 - 0.0
21/03:00am 16.7 17.7 13.2 80 2.0 CALM 0 7 0 4 1017.7 1017.7 0.0
21/02:30am 20.0 20.3 14.4 70 3.3 N 6 9 3 5 1017.6 - 0.0
21/02:00am 20.6 19.8 15.2 71 3.2 N 13 20 7 11 1017.8 - 0.0
21/01:30am 20.8 19.7 15.4 71 3.2 N 15 22 8 12 1017.7 - 0.0
21/01:00am 20.7 20.3 16.1 75 2.8 N 13 20 7 11 1017.8 - 0.0
21/12:30am 17.7 18.0 15.0 84 1.6 NNE 7 11 4 6 1017.9 - 0.0
21/12:00am 17.0 17.1 14.5 85 1.4 NE 7 11 4 6 1018.0 1018.0 0.0
 
Date/Time
EST
Temp
°C
App
Temp
°C
Dew
Point
Rel
Hum
%
Delta-T
°C
Wind Press
QNH
hPa
Press
MSL
hPa
Rain
since 9 am
mm
Dir
 
Spd
km/h
Gust
km/h
Spd
kts
Gust
kts
20/11:30pm 17.7 18.1 14.8 83 1.7 NE 6 7 3 4 1018.0 - 0.0
20/11:00pm 18.7 19.0 15.0 79 2.2 NNE 7 9 4 5 1018.1 - 0.0

Other Formats:

Comma delimited format used in spreadsheet applications
http://www.bom.gov.au/fwo/IDN60801/IDN60801.94596.axf

JavaScript Object Notation format (JSON) in row-major order
http://www.bom.gov.au/fwo/IDN60801/IDN60801.94596.json